White Rock, Minnesota
Current Conditions -  °F | °C
As of 5:54 PM on Saturday 22 Nov 2014 (Local Time) from KSYN Reporting Station
Haze Haze  
Wind Chill: 33°   Ceiling: 400
Heat Index: 38°   Visibility: 2mi
Dew Point: 36°   Wind: 7mph
Humidity: 93%   Direction: 160°SSE
Pressure: 29.62"   Gusts: NA
Location:  44.4763°N, 92.8054°W
Report Text: KSYN 222354Z AUTO 16006KT 2SM BR OVC004 03/02 A2962 RMK AO2 T00330022 10033 20025
Loading
Personal Weather Stations






























Interactive Weather Map New forecast layout! Learn more

10-Day Weather Forecast

Advertisements
Track Severe Weather on mobile